CYQW

North Battleford Airport

North Battleford, Saskatchewan, Canada
METAR CYQW 211500Z AUTO 10006KT 9SM CLR 04/03 A2988 RMK SLP141
Observed Flight Rules
Apr-21 @ 15:00 UTC (34 minutes ago) Visual Flight Rules
Wind Visibility Clouds
100° at 6 knots 9 miles
  • Clear skies
Temperatures Readings
Current 4°C / 39°F
Dewpoint 3°C / 37°F
Humidity 93%
Altimeter 29.88" Hg
Pressure 1014.1 hPa
Elevation 548
METAR CYQW 211500Z AUTO 10006KT 9SM CLR 04/03 A2988 RMK SLP141
Observed Flight Rules
Apr-21 @ 15:00 UTC
(34 minutes ago)
VFR
Wind Visibility
100° at 6 knots 9 miles
Clouds
  • Clear skies
Temperature Dewpoint
4°C / 39°F 3°C / 37°F
Humidity Altimeter Pressure
93% 29.88" Hg 1014.1 hPa